Foxboro, Wisconsin
Current Conditions -  °F | °C
As of 12:55 AM on Monday 24 Nov 2014 (Local Time) from KSUW Reporting Station
Drizzle Drizzle  
Wind Chill: 30°   Ceiling: 3800
Heat Index: 36°   Visibility: 10mi
Dew Point: 33°   Wind: 7mph
Humidity: 91%   Direction: 340°NNW
Pressure: 29.27"   Gusts: NA
Location:  46.5°N, 92.29°W
Report Text: KSUW 240655Z AUTO 34006KT 10SM -DZ OVC038 02/01 A2927 RMK AO2 T00210008
Loading
Personal Weather Stations






























Interactive Weather Map New forecast layout! Learn more

10-Day Weather Forecast

Advertisements
Track Severe Weather on mobile